Aeroporto :
LOGIN :

Iscrizione | Disclaimer

   EN    FR    IT 

 










Sommario :    VFR   VFR Marginale   IFR   IFR Intensivo   IFR Molto Intensivo
Visibilità : 
Base nubi : 
>= 8 km
>= 3000ft
5 / 8 km
1000 / 3000 ft
1500m / 5 km
500 / 1000 ft
800 / 1500m
200 / 500 ft
< 800m
< 200 ft
Simboli :   Temporali  Nebbia  Neve Forte  Precipitazioni Forti  Vento > 20 kt
SIGMETs :   Varie  Temporali  Ghiacco  Turbolenza  Onda orograficha  Ceneri Vulcaniche






- Altitudine del aeroporto : -13 ft
- Codice IATA : LEY


EHLE - Lelystad

ULTIMO METAR :
  • 202325Z AUTO 28018G29KT 240V300 9999 FEW038 06/01 Q1014

METARs OBSOLETI :
  • 202255Z AUTO 28017G27KT 9999 FEW033 SCT037 06/01 Q1014
  • 202225Z AUTO 28018KT 240V300 9999 FEW033 06/02 Q1013
  • 202125Z AUTO 28017KT 250V310 9999 FEW030 06/03 Q1011
  • 202055Z AUTO 29019KT 260V330 9999 SCT015CB SCT019 BKN042 05/03 Q1010 TEMPO 6000 SHRA

TAF TAF EHLE
Valido dal 21 a 00 ore il 22 a 06 ore UTC


202304Z 2100/2206 27015G25KT 9999 FEW025
BECMG 2104/2106 26012KT
BECMG 2108/2110 24015G25KT
BECMG 2112/2114 23020G30KT
PROB40
TEMPO 2120/2206 7000 -RA BKN018



MetMap, La meteo Aeronautica in un colpo d'occhio ! - Copyright ORBIFLY Dicembre 2007 - Disclaimer

ORBIFLY MET'MAP TEAM :

Programmazione e sviluppo : Alexandra Zaïnal
Concezione : Baudouin d'Aumeries
Aiuto per la programmazione : Marc-Olivier Méhu
Supporto tecnico e logistico : Manuel Goepfert
Aiuto per la traduzione : Arnaldo La Scala

Contatto : metmap@orbifly.com




FONTI E CREDITI :

   NOAA